createdAt,value
2018-01-12T00:01:49.509Z,27.27
2018-01-12T00:04:16.265Z,26.57
2018-01-12T00:06:42.975Z,27.67
2018-01-12T00:09:09.662Z,24.17
2018-01-12T00:11:36.417Z,27.30
2018-01-12T00:14:03.107Z,27.40
2018-01-12T00:16:29.861Z,30.07
2018-01-12T00:18:56.552Z,30.50
2018-01-12T00:21:23.252Z,30.80
2018-01-12T00:23:49.989Z,27.23
2018-01-12T00:26:16.694Z,26.13
2018-01-12T00:28:43.722Z,29.17
2018-01-12T00:31:10.437Z,31.00
2018-01-12T00:33:37.163Z,27.40
2018-01-12T00:36:03.869Z,26.60
2018-01-12T00:38:31.636Z,27.43
2018-01-12T00:40:58.491Z,30.13
2018-01-12T00:43:25.301Z,32.70
2018-01-12T00:45:52.116Z,31.97
2018-01-12T00:48:18.835Z,31.07
2018-01-12T00:50:45.547Z,26.33
2018-01-12T00:53:12.238Z,32.27
2018-01-12T00:55:38.925Z,29.20
2018-01-12T00:58:05.643Z,30.47
2018-01-12T01:00:32.370Z,27.90
2018-01-12T01:02:59.075Z,27.87
2018-01-12T01:05:25.764Z,31.47
2018-01-12T01:07:52.494Z,27.93
2018-01-12T01:10:19.246Z,29.50
2018-01-12T01:12:45.934Z,31.73
2018-01-12T01:15:12.646Z,27.40
2018-01-12T01:17:39.361Z,32.27
2018-01-12T01:20:06.098Z,29.30
2018-01-12T01:22:32.809Z,29.20
2018-01-12T01:24:59.527Z,30.70
2018-01-12T01:27:26.268Z,30.10
2018-01-12T01:29:52.976Z,31.10
2018-01-12T01:32:19.649Z,31.70
2018-01-12T01:34:46.400Z,29.93
2018-01-12T01:37:13.096Z,32.00
2018-01-12T01:39:39.788Z,30.10
2018-01-12T01:42:06.512Z,31.73
2018-01-12T01:44:33.208Z,30.10
2018-01-12T01:46:59.977Z,29.40
2018-01-12T01:49:26.664Z,29.70
2018-01-12T01:51:53.361Z,29.00
2018-01-12T01:54:20.114Z,31.40
2018-01-12T01:56:46.825Z,31.20
2018-01-12T01:59:13.529Z,33.20
2018-01-12T02:01:40.373Z,32.27
2018-01-12T02:04:07.124Z,31.50
2018-01-12T02:06:33.860Z,30.37
2018-01-12T02:09:00.561Z,34.20
2018-01-12T02:11:27.314Z,32.53
2018-01-12T02:13:54.002Z,32.03
2018-01-12T02:16:20.713Z,29.83
2018-01-12T02:18:47.421Z,32.43
2018-01-12T02:21:14.119Z,33.47
2018-01-12T02:23:40.834Z,31.03
2018-01-12T02:26:07.543Z,27.87
2018-01-12T02:28:34.240Z,34.80
2018-01-12T02:31:00.952Z,31.30
2018-01-12T02:33:27.683Z,29.80
2018-01-12T02:35:54.397Z,35.40
2018-01-12T02:38:21.110Z,29.63
2018-01-12T02:40:47.833Z,30.73
2018-01-12T02:43:14.564Z,31.60
2018-01-12T02:45:41.278Z,28.70
2018-01-12T02:48:08.003Z,29.17
2018-01-12T02:50:35.445Z,32.43
2018-01-12T02:53:02.164Z,30.13
2018-01-12T02:55:28.873Z,32.10
2018-01-12T02:57:55.585Z,30.97
2018-01-12T03:00:22.536Z,29.50
2018-01-12T03:02:49.260Z,31.40
2018-01-12T03:05:16.039Z,31.13
2018-01-12T03:07:42.752Z,33.97
2018-01-12T03:10:09.449Z,32.80
2018-01-12T03:12:36.165Z,32.20
2018-01-12T03:15:02.881Z,28.97
2018-01-12T03:17:29.581Z,30.97
2018-01-12T03:19:56.390Z,32.20
2018-01-12T03:22:23.159Z,32.40
2018-01-12T03:24:49.884Z,33.03
2018-01-12T03:27:16.637Z,32.17
2018-01-12T03:29:43.359Z,31.53
2018-01-12T03:32:10.124Z,28.73
2018-01-12T03:34:36.869Z,31.63
2018-01-12T03:37:03.603Z,31.47
2018-01-12T03:39:30.303Z,29.57
2018-01-12T03:41:57.120Z,28.37
2018-01-12T03:44:23.815Z,33.93
2018-01-12T03:46:50.588Z,27.73
2018-01-12T03:49:17.329Z,27.63
2018-01-12T03:51:44.063Z,31.27
2018-01-12T03:54:10.809Z,33.40
2018-01-12T03:56:37.536Z,28.77
2018-01-12T03:59:04.292Z,29.07
2018-01-12T04:01:31.024Z,28.13
2018-01-12T04:03:57.794Z,27.63
2018-01-12T04:06:24.511Z,30.17
2018-01-12T04:08:51.204Z,30.10
2018-01-12T04:11:17.913Z,26.40
2018-01-12T04:13:44.644Z,29.87
2018-01-12T04:16:11.364Z,32.03
2018-01-12T04:18:38.097Z,30.23
2018-01-12T04:21:04.820Z,32.57
2018-01-12T04:23:31.541Z,32.03
2018-01-12T04:25:58.279Z,27.97
2018-01-12T04:28:25.010Z,33.73
2018-01-12T04:30:51.731Z,31.50
2018-01-12T04:33:18.481Z,28.67
2018-01-12T04:35:45.155Z,28.70
2018-01-12T04:38:11.853Z,27.90
2018-01-12T04:40:39.060Z,27.53
2018-01-12T04:43:05.820Z,27.17
2018-01-12T04:45:32.528Z,29.77
2018-01-12T04:47:59.310Z,25.67
2018-01-12T04:50:26.101Z,27.20
2018-01-12T04:52:52.814Z,28.27
2018-01-12T04:55:19.526Z,28.93
2018-01-12T04:57:46.235Z,30.30
2018-01-12T05:00:12.974Z,26.47
2018-01-12T05:02:39.716Z,26.57
2018-01-12T05:05:06.411Z,28.70
2018-01-12T05:07:33.115Z,28.20
2018-01-12T05:09:59.963Z,28.37
2018-01-12T05:12:26.691Z,30.77
2018-01-12T05:14:53.420Z,27.37
2018-01-12T05:17:20.208Z,27.90
2018-01-12T05:19:47.218Z,29.40
2018-01-12T05:22:13.966Z,30.70
2018-01-12T05:24:40.701Z,30.53
2018-01-12T05:27:07.497Z,29.40
2018-01-12T05:29:34.392Z,30.07
2018-01-12T05:32:02.410Z,31.63
2018-01-12T05:34:29.924Z,29.97
2018-01-12T05:36:56.647Z,31.70
2018-01-12T05:39:23.356Z,30.17
2018-01-12T05:41:50.145Z,25.63
2018-01-12T05:44:16.908Z,27.10
2018-01-12T05:46:43.669Z,26.10
2018-01-12T05:49:10.402Z,33.07
2018-01-12T05:51:37.133Z,26.47
2018-01-12T05:54:03.843Z,30.23
2018-01-12T05:56:30.623Z,25.00
2018-01-12T05:58:58.053Z,32.13
2018-01-12T06:01:30.653Z,33.87
2018-01-12T06:04:03.290Z,30.50
2018-01-12T06:06:30.009Z,33.13
2018-01-12T06:08:56.750Z,28.00
2018-01-12T06:11:23.463Z,27.53
2018-01-12T06:13:50.194Z,31.60
2018-01-12T06:16:16.941Z,29.50
2018-01-12T06:18:43.641Z,33.17
2018-01-12T06:21:10.460Z,32.23
2018-01-12T06:23:37.163Z,36.50
2018-01-12T06:26:04.753Z,29.30
2018-01-12T06:28:31.458Z,32.33
2018-01-12T06:30:58.168Z,31.77
2018-01-12T06:33:24.944Z,35.37
2018-01-12T06:35:51.626Z,32.50
2018-01-12T06:38:18.405Z,38.33
2018-01-12T06:40:45.131Z,32.10
2018-01-12T06:43:11.902Z,37.53
2018-01-12T06:45:38.589Z,36.80
2018-01-12T06:48:05.276Z,32.77
2018-01-12T06:50:32.061Z,34.37
2018-01-12T06:52:58.807Z,31.67
2018-01-12T06:55:25.563Z,39.33
2018-01-12T06:57:52.241Z,34.23
2018-01-12T07:00:18.982Z,35.07
2018-01-12T07:02:45.699Z,33.13
2018-01-12T07:05:12.441Z,36.37
2018-01-12T07:07:39.221Z,32.93
2018-01-12T07:10:06.033Z,33.73
2018-01-12T07:12:33.038Z,34.30
2018-01-12T07:14:59.791Z,37.80
2018-01-12T07:17:26.573Z,35.40
2018-01-12T07:19:53.506Z,31.63
2018-01-12T07:22:25.995Z,31.47
2018-01-12T07:24:52.829Z,36.80
2018-01-12T07:27:19.600Z,34.60
2018-01-12T07:29:46.332Z,33.60
2018-01-12T07:32:13.152Z,33.83
2018-01-12T07:34:39.883Z,34.13
2018-01-12T07:37:06.592Z,36.70
2018-01-12T07:39:33.342Z,37.90
2018-01-12T07:42:00.096Z,28.43
2018-01-12T07:44:26.864Z,34.57
2018-01-12T07:46:53.608Z,30.77
2018-01-12T07:49:20.455Z,32.53
2018-01-12T07:51:47.176Z,26.57
2018-01-12T07:54:13.899Z,31.30
2018-01-12T07:56:40.648Z,30.70
2018-01-12T07:59:07.357Z,32.03
2018-01-12T08:01:39.751Z,31.87
2018-01-12T08:04:06.495Z,31.10
2018-01-12T08:06:33.213Z,29.53
2018-01-12T08:08:59.905Z,29.33
2018-01-12T08:11:26.633Z,32.37
2018-01-12T08:13:53.340Z,30.73
2018-01-12T08:16:20.052Z,32.40
2018-01-12T08:18:46.737Z,31.10
2018-01-12T08:21:13.464Z,29.47
2018-01-12T08:23:40.182Z,32.00
2018-01-12T08:26:06.891Z,27.43
2018-01-12T08:28:33.629Z,29.30
2018-01-12T08:31:00.355Z,27.17
2018-01-12T08:33:27.089Z,36.30
2018-01-12T08:35:53.863Z,28.77
2018-01-12T08:38:20.563Z,29.20
2018-01-12T08:40:47.250Z,28.77
2018-01-12T08:43:13.959Z,32.13
2018-01-12T08:45:40.683Z,28.90
2018-01-12T08:48:07.389Z,28.37
2018-01-12T08:50:34.114Z,30.37
2018-01-12T08:53:00.861Z,25.00
2018-01-12T08:55:27.553Z,28.43
2018-01-12T08:57:54.303Z,25.87
2018-01-12T09:00:21.048Z,27.27
2018-01-12T09:02:47.769Z,28.47
2018-01-12T09:05:14.535Z,34.80
2018-01-12T09:07:41.224Z,31.20
2018-01-12T09:10:07.925Z,28.27
2018-01-12T09:12:34.654Z,28.07
2018-01-12T09:15:18.850Z,28.70
2018-01-12T09:17:47.302Z,28.67
2018-01-12T09:20:16.802Z,25.83
2018-01-12T09:22:45.260Z,26.97
2018-01-12T09:25:11.947Z,31.33
2018-01-12T09:27:38.662Z,31.20
2018-01-12T09:30:05.341Z,29.20
2018-01-12T09:32:32.186Z,32.13
2018-01-12T09:34:59.810Z,28.60
2018-01-12T09:37:26.541Z,24.80
2018-01-12T09:39:59.074Z,26.23
2018-01-12T09:42:25.795Z,29.83
2018-01-12T09:44:52.521Z,29.27
2018-01-12T09:47:22.003Z,29.80
2018-01-12T09:49:48.738Z,28.30
2018-01-12T09:52:15.431Z,28.40
2018-01-12T09:54:42.193Z,29.73
2018-01-12T09:57:08.940Z,32.60
2018-01-12T09:59:41.497Z,28.73
2018-01-12T10:02:08.241Z,30.90
2018-01-12T10:04:35.731Z,27.20
2018-01-12T10:07:08.292Z,28.53
2018-01-12T10:09:40.766Z,30.13
2018-01-12T10:12:07.494Z,27.63
2018-01-12T10:14:34.657Z,36.77
2018-01-12T10:17:01.383Z,29.63
2018-01-12T10:19:28.120Z,27.33
2018-01-12T10:21:54.832Z,26.60
2018-01-12T10:24:21.541Z,27.70
2018-01-12T10:26:48.269Z,28.67
2018-01-12T10:29:14.944Z,28.20
2018-01-12T10:31:47.591Z,26.53
2018-01-12T10:34:20.039Z,26.83
2018-01-12T10:36:52.502Z,23.50
2018-01-12T10:39:19.976Z,26.07
2018-01-12T10:41:52.420Z,24.73
2018-01-12T10:44:19.351Z,25.10
2018-01-12T10:46:46.041Z,23.37
2018-01-12T10:49:18.693Z,29.03
2018-01-12T10:51:45.407Z,24.67
2018-01-12T10:54:12.189Z,26.60
2018-01-12T10:56:38.973Z,29.03
2018-01-12T10:59:05.642Z,26.20
2018-01-12T11:01:32.417Z,29.37
2018-01-12T11:03:59.192Z,25.97
2018-01-12T11:06:25.957Z,28.53
2018-01-12T11:08:52.906Z,25.93
2018-01-12T11:11:19.608Z,28.23
2018-01-12T11:13:46.392Z,26.77
2018-01-12T11:16:13.150Z,27.90
2018-01-12T11:18:39.890Z,23.97
2018-01-12T11:21:06.598Z,29.07
2018-01-12T11:23:33.318Z,25.97
2018-01-12T11:26:00.023Z,24.13
2018-01-12T11:28:26.733Z,23.13
2018-01-12T11:30:53.426Z,30.57
2018-01-12T11:33:20.157Z,30.33
2018-01-12T11:35:46.849Z,28.33
2018-01-12T11:38:13.586Z,27.90
2018-01-12T11:40:40.337Z,26.17
2018-01-12T11:43:07.034Z,26.80
2018-01-12T11:45:33.741Z,24.73
2018-01-12T11:48:00.477Z,29.30
2018-01-12T11:50:27.158Z,27.57
2018-01-12T11:52:53.892Z,28.07
2018-01-12T11:55:21.025Z,33.50
2018-01-12T11:57:47.753Z,31.00
2018-01-12T12:00:14.487Z,29.83
2018-01-12T12:02:41.213Z,28.10
2018-01-12T12:05:07.942Z,27.07
2018-01-12T12:07:34.667Z,30.43
2018-01-12T12:10:01.387Z,31.83
2018-01-12T12:12:28.061Z,24.13
2018-01-12T12:14:54.779Z,29.20
2018-01-12T12:17:21.470Z,29.33
2018-01-12T12:19:48.173Z,25.53
2018-01-12T12:22:14.877Z,28.20
2018-01-12T12:24:41.655Z,29.80
2018-01-12T12:27:08.360Z,29.03
2018-01-12T12:29:35.061Z,26.57
2018-01-12T12:32:01.874Z,30.53
2018-01-12T12:34:29.914Z,27.80
2018-01-12T12:36:56.658Z,27.80
2018-01-12T12:39:23.353Z,29.33
2018-01-12T12:41:50.051Z,35.60
2018-01-12T12:44:16.789Z,28.10
2018-01-12T12:46:43.549Z,31.33
2018-01-12T12:49:10.312Z,33.73
2018-01-12T12:51:37.168Z,28.70
2018-01-12T12:54:03.977Z,27.03
2018-01-12T12:56:30.696Z,29.00
2018-01-12T12:58:57.464Z,29.10
2018-01-12T13:01:24.237Z,29.17
2018-01-12T13:03:50.922Z,29.60
2018-01-12T13:06:17.622Z,34.60
2018-01-12T13:08:44.374Z,27.73
2018-01-12T13:11:11.055Z,31.17
2018-01-12T13:13:37.760Z,29.30
2018-01-12T13:16:04.521Z,26.67
2018-01-12T13:18:31.264Z,34.47
2018-01-12T13:20:57.958Z,28.53
2018-01-12T13:23:25.012Z,29.17
2018-01-12T13:25:51.701Z,29.23
2018-01-12T13:28:18.422Z,25.30
2018-01-12T13:30:45.158Z,25.43
2018-01-12T13:33:11.868Z,24.33
2018-01-12T13:35:38.596Z,28.60
2018-01-12T13:38:05.659Z,28.53
2018-01-12T13:40:33.064Z,27.63
2018-01-12T13:42:59.773Z,31.00
2018-01-12T13:45:26.522Z,30.80
2018-01-12T13:47:53.226Z,30.87
2018-01-12T13:50:19.941Z,27.53
2018-01-12T13:52:46.725Z,27.10
2018-01-12T13:55:13.462Z,26.40
2018-01-12T13:57:40.202Z,25.63
2018-01-12T14:00:06.941Z,29.87
2018-01-12T14:02:33.675Z,27.57
2018-01-12T14:05:00.391Z,23.47
2018-01-12T14:07:27.213Z,27.30
2018-01-12T14:09:53.896Z,25.70
2018-01-12T14:12:20.719Z,24.70
2018-01-12T14:14:47.474Z,26.77
2018-01-12T14:17:14.230Z,26.23
2018-01-12T14:19:41.207Z,28.30
2018-01-12T14:22:07.910Z,24.53
2018-01-12T14:24:35.725Z,26.27
2018-01-12T14:27:02.418Z,25.43
2018-01-12T14:29:29.147Z,24.87
2018-01-12T14:31:55.853Z,27.20
2018-01-12T14:34:22.597Z,26.07
2018-01-12T14:36:49.345Z,26.40
2018-01-12T14:39:16.055Z,23.47
2018-01-12T14:41:42.753Z,25.47
2018-01-12T14:44:09.526Z,20.63
2018-01-12T14:46:36.229Z,23.03
2018-01-12T14:49:02.929Z,23.73
2018-01-12T14:51:29.649Z,17.87
2018-01-12T14:53:56.370Z,16.37
2018-01-12T14:56:23.101Z,16.10
2018-01-12T14:58:49.790Z,16.03
2018-01-12T15:01:16.531Z,18.53
2018-01-12T15:03:43.213Z,17.70
2018-01-12T15:06:09.915Z,15.50
2018-01-12T15:08:37.450Z,15.00
2018-01-12T15:11:04.248Z,15.23
2018-01-12T15:13:31.005Z,16.60
2018-01-12T15:15:57.701Z,16.53
2018-01-12T15:18:24.426Z,13.37
2018-01-12T15:20:51.213Z,15.73
2018-01-12T15:23:17.906Z,16.13
2018-01-12T15:25:44.659Z,14.30
2018-01-12T15:28:11.427Z,16.23
2018-01-12T15:30:38.181Z,17.57
2018-01-12T15:33:04.885Z,15.17
2018-01-12T15:35:31.627Z,17.37
2018-01-12T15:37:58.365Z,16.07
2018-01-12T15:40:25.107Z,20.50
2018-01-12T15:42:51.891Z,15.20
2018-01-12T15:45:18.577Z,17.10
2018-01-12T15:47:45.291Z,14.77
2018-01-12T15:50:12.011Z,16.90
2018-01-12T15:52:38.709Z,15.63
2018-01-12T15:55:05.447Z,15.77
2018-01-12T15:57:32.134Z,17.30
2018-01-12T15:59:58.860Z,16.20
2018-01-12T16:02:25.559Z,16.90
2018-01-12T16:04:52.294Z,15.20
2018-01-12T16:07:19.073Z,15.73
2018-01-12T16:09:46.162Z,17.60
2018-01-12T16:12:12.895Z,15.90
2018-01-12T16:14:39.671Z,17.27
2018-01-12T16:17:06.449Z,17.07
2018-01-12T16:19:33.193Z,22.60
2018-01-12T16:22:00.213Z,18.87
2018-01-12T16:24:27.112Z,16.37
2018-01-12T16:26:53.846Z,16.43
2018-01-12T16:29:22.499Z,17.23
2018-01-12T16:31:49.238Z,18.30
2018-01-12T16:34:15.956Z,19.87
2018-01-12T16:36:42.783Z,18.50
2018-01-12T16:39:12.990Z,23.07
2018-01-12T16:41:36.782Z,18.63
2018-01-12T16:44:03.643Z,20.90
2018-01-12T16:46:30.388Z,18.20
2018-01-12T16:48:57.088Z,17.13
2018-01-12T16:51:23.796Z,18.87
2018-01-12T16:53:50.568Z,19.50
2018-01-12T16:56:17.304Z,18.37
2018-01-12T16:58:44.020Z,20.83
2018-01-12T17:01:10.752Z,19.17
2018-01-12T17:03:37.697Z,22.00
2018-01-12T17:06:04.482Z,21.23
2018-01-12T17:08:31.292Z,20.77
2018-01-12T17:10:58.027Z,24.40
2018-01-12T17:13:24.817Z,19.30
2018-01-12T17:15:51.523Z,22.13
2018-01-12T17:18:18.276Z,23.17
2018-01-12T17:20:45.079Z,23.40
2018-01-12T17:23:11.913Z,22.37
2018-01-12T17:25:38.668Z,23.83
2018-01-12T17:28:05.404Z,23.07
2018-01-12T17:30:32.169Z,20.87
2018-01-12T17:32:59.048Z,21.47
2018-01-12T17:35:25.757Z,20.80
2018-01-12T17:37:52.507Z,21.93
2018-01-12T17:40:19.336Z,23.57
2018-01-12T17:42:46.181Z,20.20
2018-01-12T17:45:12.882Z,24.47
2018-01-12T17:47:39.642Z,21.40
2018-01-12T17:50:06.437Z,20.80
2018-01-12T17:52:33.172Z,22.13
2018-01-12T17:54:59.930Z,22.00
2018-01-12T17:57:26.880Z,20.17
2018-01-12T17:59:53.563Z,22.50
2018-01-12T18:02:20.275Z,21.13
2018-01-12T18:04:46.994Z,21.07
2018-01-12T18:07:13.721Z,23.10
2018-01-12T18:09:40.426Z,23.33
2018-01-12T18:12:07.163Z,21.47
2018-01-12T18:14:34.402Z,22.97
2018-01-12T18:17:01.123Z,21.00
2018-01-12T18:19:27.883Z,20.93
2018-01-12T18:21:54.565Z,25.70
2018-01-12T18:24:21.266Z,21.37
2018-01-12T18:26:48.050Z,23.03
2018-01-12T18:29:14.773Z,25.47
2018-01-12T18:31:41.514Z,22.90
2018-01-12T18:34:08.237Z,21.73
2018-01-12T18:36:34.977Z,20.63
2018-01-12T18:39:01.701Z,22.97
2018-01-12T18:41:28.417Z,21.50
2018-01-12T18:43:55.153Z,19.60
2018-01-12T18:46:21.845Z,23.37
2018-01-12T18:48:48.549Z,20.00
2018-01-12T18:51:15.292Z,18.43
2018-01-12T18:53:42.039Z,18.97
2018-01-12T18:56:08.734Z,23.27
2018-01-12T18:58:35.552Z,18.30
2018-01-12T19:01:02.288Z,20.67
2018-01-12T19:03:28.984Z,20.57
2018-01-12T19:05:55.710Z,23.77
2018-01-12T19:08:22.509Z,19.70
2018-01-12T19:10:49.238Z,20.50
2018-01-12T19:13:16.024Z,19.80
2018-01-12T19:15:42.761Z,17.83
2018-01-12T19:18:09.486Z,18.10
2018-01-12T19:20:36.236Z,22.43
2018-01-12T19:23:02.978Z,19.53
2018-01-12T19:25:29.753Z,19.90
2018-01-12T19:27:56.493Z,21.47
2018-01-12T19:30:23.191Z,22.63
2018-01-12T19:32:50.553Z,24.17
2018-01-12T19:35:17.426Z,22.13
2018-01-12T19:37:44.140Z,24.80
2018-01-12T19:40:11.197Z,22.57
2018-01-12T19:42:37.901Z,23.53
2018-01-12T19:45:05.575Z,19.87
2018-01-12T19:47:32.374Z,22.33
2018-01-12T19:49:59.184Z,18.27
2018-01-12T19:52:25.892Z,22.47
2018-01-12T19:54:52.616Z,20.53
2018-01-12T19:57:19.366Z,18.17
2018-01-12T19:59:46.104Z,21.00
2018-01-12T20:02:12.889Z,20.87
2018-01-12T20:04:39.664Z,18.57
2018-01-12T20:07:06.350Z,17.83
2018-01-12T20:09:33.078Z,20.33
2018-01-12T20:11:59.803Z,20.40
2018-01-12T20:14:26.610Z,20.50
2018-01-12T20:16:53.504Z,22.20
2018-01-12T20:19:20.269Z,22.03
2018-01-12T20:21:46.976Z,18.33
2018-01-12T20:24:13.806Z,19.07
2018-01-12T20:26:40.575Z,19.53
2018-01-12T20:29:07.312Z,22.07
2018-01-12T20:31:35.032Z,20.17
2018-01-12T20:34:01.886Z,21.67
2018-01-12T20:36:28.610Z,22.03
2018-01-12T20:38:55.596Z,21.83
2018-01-12T20:41:22.332Z,20.57
2018-01-12T20:43:49.117Z,21.30
2018-01-12T20:46:15.867Z,21.50
2018-01-12T20:48:42.565Z,23.83
2018-01-12T20:51:09.384Z,22.13
2018-01-12T20:53:36.147Z,24.13
2018-01-12T20:56:02.895Z,21.87
2018-01-12T20:58:29.602Z,20.90
2018-01-12T21:00:56.532Z,22.17
2018-01-12T21:03:23.336Z,25.07
2018-01-12T21:05:50.088Z,20.63
2018-01-12T21:08:16.839Z,24.50
2018-01-12T21:10:43.548Z,24.97
2018-01-12T21:13:10.393Z,20.77
2018-01-12T21:15:37.127Z,23.33
2018-01-12T21:18:03.854Z,26.23
2018-01-12T21:20:30.604Z,24.87
2018-01-12T21:22:57.366Z,24.90
2018-01-12T21:25:24.097Z,21.87
2018-01-12T21:27:50.832Z,23.10
2018-01-12T21:30:17.522Z,22.60
2018-01-12T21:32:44.452Z,23.40
2018-01-12T21:35:11.169Z,21.83
2018-01-12T21:37:37.880Z,22.60
2018-01-12T21:40:04.648Z,23.47
2018-01-12T21:42:31.344Z,22.10
2018-01-12T21:44:58.083Z,22.10
2018-01-12T21:47:24.835Z,26.73
2018-01-12T21:49:51.562Z,20.83
2018-01-12T21:52:18.248Z,22.50
2018-01-12T21:54:44.989Z,18.57
2018-01-12T21:57:11.702Z,24.43
2018-01-12T21:59:38.541Z,22.90
2018-01-12T22:02:06.209Z,23.53
2018-01-12T22:04:32.912Z,21.30
2018-01-12T22:06:59.651Z,25.43
2018-01-12T22:09:26.347Z,24.00
2018-01-12T22:11:53.124Z,24.63
2018-01-12T22:14:19.903Z,27.57
2018-01-12T22:16:46.994Z,25.23
2018-01-12T22:19:13.718Z,26.70
2018-01-12T22:21:40.470Z,25.17
2018-01-12T22:24:07.293Z,20.53
2018-01-12T22:26:34.325Z,24.50
2018-01-12T22:29:01.275Z,20.63
2018-01-12T22:31:28.034Z,22.10
2018-01-12T22:33:54.754Z,23.73
2018-01-12T22:36:21.516Z,21.73
2018-01-12T22:38:48.272Z,24.97
2018-01-12T22:41:14.983Z,23.63
2018-01-12T22:43:41.684Z,21.83
2018-01-12T22:46:08.434Z,25.37
2018-01-12T22:48:35.186Z,23.17
2018-01-12T22:51:01.912Z,23.10
2018-01-12T22:53:28.655Z,25.50
2018-01-12T22:55:55.431Z,21.77
2018-01-12T22:58:22.208Z,22.43
2018-01-12T23:00:48.923Z,22.70
2018-01-12T23:03:15.624Z,24.03
2018-01-12T23:05:42.375Z,28.13
2018-01-12T23:08:09.093Z,24.10
2018-01-12T23:10:35.843Z,23.00
2018-01-12T23:13:02.577Z,27.70
2018-01-12T23:15:29.274Z,23.10
2018-01-12T23:17:56.046Z,23.60
2018-01-12T23:20:22.760Z,25.27
2018-01-12T23:22:49.487Z,28.20
2018-01-12T23:25:16.218Z,27.73
2018-01-12T23:27:42.921Z,22.93
2018-01-12T23:30:09.606Z,23.97
2018-01-12T23:32:36.356Z,24.57
2018-01-12T23:35:03.119Z,26.47
2018-01-12T23:37:29.825Z,24.13
2018-01-12T23:39:56.568Z,22.77
2018-01-12T23:42:23.274Z,22.80
2018-01-12T23:44:49.982Z,27.23
2018-01-12T23:47:16.696Z,22.73
2018-01-12T23:49:43.428Z,25.33
2018-01-12T23:52:10.192Z,23.00
2018-01-12T23:54:36.874Z,24.90
2018-01-12T23:57:03.572Z,22.80
2018-01-12T23:59:30.262Z,21.43
